createdAt,value
2017-08-21T00:00:49.072Z,0
2017-08-21T00:02:01.668Z,0
2017-08-21T00:03:13.988Z,0
2017-08-21T00:04:26.295Z,0
2017-08-21T00:05:38.975Z,0
2017-08-21T00:06:51.546Z,0
2017-08-21T00:08:03.883Z,0
2017-08-21T00:09:15.892Z,0
2017-08-21T00:10:28.483Z,0
2017-08-21T00:11:40.800Z,0
2017-08-21T00:12:53.435Z,0
2017-08-21T00:14:06.014Z,0
2017-08-21T00:15:18.291Z,0
2017-08-21T00:16:30.882Z,0
2017-08-21T00:17:43.155Z,0
2017-08-21T00:18:55.409Z,0
2017-08-21T00:20:07.696Z,0
2017-08-21T00:21:20.538Z,0
2017-08-21T00:22:32.810Z,0
2017-08-21T00:23:45.131Z,0
2017-08-21T00:24:57.713Z,0
2017-08-21T00:26:10.344Z,0
2017-08-21T00:27:22.864Z,0
2017-08-21T00:28:35.110Z,0
2017-08-21T00:29:47.067Z,0
2017-08-21T00:30:59.678Z,0
2017-08-21T00:32:12.249Z,0
2017-08-21T00:33:24.792Z,0
2017-08-21T00:34:37.320Z,0
2017-08-21T00:35:49.266Z,0
2017-08-21T00:37:01.561Z,0
2017-08-21T00:38:14.186Z,0
2017-08-21T00:39:26.464Z,0
2017-08-21T00:40:39.049Z,0
2017-08-21T00:41:51.064Z,0
2017-08-21T00:43:03.558Z,0
2017-08-21T00:44:16.129Z,0
2017-08-21T00:45:28.707Z,0
2017-08-21T00:46:41.296Z,0
2017-08-21T00:47:52.651Z,0
2017-08-21T00:49:05.237Z,0
2017-08-21T00:50:17.811Z,0
2017-08-21T00:51:30.448Z,0
2017-08-21T00:52:42.423Z,0
2017-08-21T00:53:54.359Z,0
2017-08-21T00:55:06.721Z,0
2017-08-21T00:56:19.316Z,0
2017-08-21T00:57:31.924Z,0
2017-08-21T00:58:44.527Z,0
2017-08-21T00:59:57.075Z,0
2017-08-21T01:01:09.568Z,0
2017-08-21T01:02:21.570Z,0
2017-08-21T01:03:34.166Z,0
2017-08-21T01:04:46.470Z,0
2017-08-21T01:05:58.462Z,0
2017-08-21T01:07:10.727Z,0
2017-08-21T01:08:23.023Z,0
2017-08-21T01:09:35.287Z,0
2017-08-21T01:10:47.561Z,0
2017-08-21T01:12:00.103Z,0
2017-08-21T01:13:12.680Z,0
2017-08-21T01:14:25.252Z,0
2017-08-21T01:15:37.846Z,0
2017-08-21T01:16:50.123Z,0
2017-08-21T01:18:02.732Z,0
2017-08-21T01:19:15.306Z,0
2017-08-21T01:20:27.907Z,0
2017-08-21T01:21:40.222Z,0
2017-08-21T01:22:52.475Z,0
2017-08-21T01:24:04.496Z,0
2017-08-21T01:25:17.084Z,0
2017-08-21T01:26:29.399Z,0
2017-08-21T01:27:40.774Z,0
2017-08-21T01:28:52.796Z,0
2017-08-21T01:30:05.393Z,0
2017-08-21T01:31:17.673Z,0
2017-08-21T01:32:30.254Z,0
2017-08-21T01:33:42.177Z,0
2017-08-21T01:34:54.396Z,0
2017-08-21T01:36:06.715Z,0
2017-08-21T01:37:19.265Z,0
2017-08-21T01:38:31.508Z,0
2017-08-21T01:39:44.114Z,0
2017-08-21T01:40:56.405Z,0
2017-08-21T01:42:09.001Z,0
2017-08-21T01:43:21.283Z,0
2017-08-21T01:44:33.828Z,0
2017-08-21T01:45:46.068Z,0
2017-08-21T01:46:58.325Z,0
2017-08-21T01:48:10.605Z,0
2017-08-21T01:49:23.311Z,0
2017-08-21T01:50:35.839Z,0
2017-08-21T01:51:48.116Z,0
2017-08-21T01:53:00.392Z,0
2017-08-21T01:54:12.650Z,0
2017-08-21T01:55:25.214Z,0
2017-08-21T01:56:37.495Z,0
2017-08-21T01:57:49.470Z,0
2017-08-21T01:59:02.073Z,0
2017-08-21T02:00:14.054Z,0
2017-08-21T02:01:26.374Z,0
2017-08-21T02:02:38.952Z,0
2017-08-21T02:03:51.516Z,0
2017-08-21T02:05:04.162Z,0
2017-08-21T02:06:16.133Z,0
2017-08-21T02:07:28.704Z,0
2017-08-21T02:08:40.997Z,0
2017-08-21T02:09:53.198Z,0
2017-08-21T02:11:05.490Z,0
2017-08-21T02:12:17.522Z,0
2017-08-21T02:13:30.082Z,0
2017-08-21T02:14:42.353Z,0
2017-08-21T02:15:54.899Z,0
2017-08-21T02:17:07.218Z,0
2017-08-21T02:18:19.768Z,0
2017-08-21T02:19:31.993Z,0
2017-08-21T02:20:44.276Z,0
2017-08-21T02:21:56.837Z,0
2017-08-21T02:23:09.451Z,0
2017-08-21T02:24:22.032Z,0
2017-08-21T02:25:34.274Z,0
2017-08-21T02:26:46.886Z,0
2017-08-21T02:27:59.247Z,0
2017-08-21T02:29:11.498Z,0
2017-08-21T02:30:23.798Z,0
2017-08-21T02:31:36.343Z,0
2017-08-21T02:32:48.311Z,0
2017-08-21T02:34:00.601Z,0
2017-08-21T02:35:12.559Z,0
2017-08-21T02:36:24.566Z,0
2017-08-21T02:37:37.120Z,0
2017-08-21T02:38:48.776Z,0
2017-08-21T02:40:01.359Z,0
2017-08-21T02:41:13.642Z,0
2017-08-21T02:42:26.479Z,0
2017-08-21T02:43:39.028Z,0
2017-08-21T02:44:51.061Z,0
2017-08-21T02:46:03.647Z,0
2017-08-21T02:47:16.283Z,0
2017-08-21T02:48:28.591Z,0
2017-08-21T02:49:40.575Z,0
2017-08-21T02:50:52.832Z,0
2017-08-21T02:52:05.484Z,0
2017-08-21T02:53:17.712Z,0
2017-08-21T02:54:30.337Z,0
2017-08-21T02:55:42.979Z,0
2017-08-21T02:56:55.586Z,0
2017-08-21T02:58:07.895Z,0
2017-08-21T02:59:20.424Z,0
2017-08-21T03:00:33.018Z,0
2017-08-21T03:01:45.306Z,0
2017-08-21T03:02:57.619Z,0
2017-08-21T03:04:09.673Z,0
2017-08-21T03:05:22.270Z,0
2017-08-21T03:06:34.795Z,0
2017-08-21T03:07:47.096Z,0
2017-08-21T03:08:59.735Z,0
2017-08-21T03:10:12.027Z,0
2017-08-21T03:11:24.583Z,0
2017-08-21T03:12:37.174Z,0
2017-08-21T03:13:49.837Z,0
2017-08-21T03:15:02.634Z,0
2017-08-21T03:16:15.160Z,0
2017-08-21T03:17:27.762Z,0
2017-08-21T03:18:40.340Z,0
2017-08-21T03:19:52.616Z,0
2017-08-21T03:21:04.889Z,0
2017-08-21T03:22:17.415Z,0
2017-08-21T03:23:30.070Z,4
2017-08-21T03:24:42.327Z,4
2017-08-21T03:25:54.875Z,4
2017-08-21T03:27:07.457Z,4
2017-08-21T03:28:20.054Z,0
2017-08-21T03:29:32.647Z,4
2017-08-21T03:30:45.246Z,8
2017-08-21T03:31:57.530Z,4
2017-08-21T03:33:10.068Z,8
2017-08-21T03:34:22.614Z,8
2017-08-21T03:35:34.921Z,8
2017-08-21T03:36:47.229Z,16
2017-08-21T03:37:59.508Z,16
2017-08-21T03:39:11.490Z,16
2017-08-21T03:40:24.097Z,20
2017-08-21T03:41:36.367Z,24
2017-08-21T03:42:48.369Z,28
2017-08-21T03:44:01.004Z,28
2017-08-21T03:45:13.042Z,36
2017-08-21T03:46:25.271Z,44
2017-08-21T03:47:37.545Z,48
2017-08-21T03:48:49.796Z,60
2017-08-21T03:50:02.125Z,68
2017-08-21T03:51:14.432Z,80
2017-08-21T03:52:26.729Z,104
2017-08-21T03:53:39.076Z,120
2017-08-21T03:54:51.640Z,140
2017-08-21T03:56:04.193Z,156
2017-08-21T03:57:16.493Z,180
2017-08-21T03:58:29.077Z,204
2017-08-21T03:59:41.683Z,240
2017-08-21T04:00:54.292Z,260
2017-08-21T04:02:06.539Z,260
2017-08-21T04:03:18.521Z,332
2017-08-21T04:04:30.861Z,380
2017-08-21T04:05:43.465Z,412
2017-08-21T04:06:55.721Z,464
2017-08-21T04:08:07.728Z,496
2017-08-21T04:09:20.330Z,548
2017-08-21T04:10:31.992Z,612
2017-08-21T04:11:43.963Z,628
2017-08-21T04:12:55.932Z,692
2017-08-21T04:14:07.632Z,740
2017-08-21T04:15:20.272Z,788
2017-08-21T04:16:32.912Z,708
2017-08-21T04:17:44.881Z,656
2017-08-21T04:18:57.203Z,728
2017-08-21T04:20:09.203Z,732
2017-08-21T04:21:21.804Z,724
2017-08-21T04:22:33.716Z,828
2017-08-21T04:23:45.665Z,928
2017-08-21T04:24:58.274Z,892
2017-08-21T04:26:09.951Z,896
2017-08-21T04:27:22.566Z,960
2017-08-21T04:28:35.179Z,832
2017-08-21T04:29:47.465Z,808
2017-08-21T04:31:00.285Z,876
2017-08-21T04:32:12.843Z,796
2017-08-21T04:33:25.432Z,712
2017-08-21T04:34:37.707Z,752
2017-08-21T04:35:50.028Z,924
2017-08-21T04:37:02.953Z,1012
2017-08-21T04:38:15.213Z,1128
2017-08-21T04:39:27.527Z,1292
2017-08-21T04:40:40.085Z,1276
2017-08-21T04:41:52.378Z,1332
2017-08-21T04:43:05.008Z,1528
2017-08-21T04:44:17.567Z,1644
2017-08-21T04:45:29.844Z,1660
2017-08-21T04:46:42.428Z,2032
2017-08-21T04:47:54.766Z,1892
2017-08-21T04:49:07.355Z,1636
2017-08-21T04:50:19.616Z,1392
2017-08-21T04:51:32.178Z,1672
2017-08-21T04:52:44.711Z,1932
2017-08-21T04:53:57.039Z,1708
2017-08-21T04:55:09.676Z,1528
2017-08-21T04:56:22.242Z,1852
2017-08-21T04:57:34.519Z,2000
2017-08-21T04:58:47.115Z,2844
2017-08-21T04:59:59.384Z,2640
2017-08-21T05:01:11.386Z,3452
2017-08-21T05:02:23.669Z,2776
2017-08-21T05:03:35.942Z,3068
2017-08-21T05:04:48.198Z,3028
2017-08-21T05:06:00.879Z,3724
2017-08-21T05:07:13.153Z,3584
2017-08-21T05:08:25.716Z,4700
2017-08-21T05:09:38.307Z,4720
2017-08-21T05:10:50.657Z,4868
2017-08-21T05:12:02.889Z,3208
2017-08-21T05:13:15.510Z,2956
2017-08-21T05:14:28.088Z,3044
2017-08-21T05:15:40.129Z,3304
2017-08-21T05:16:52.395Z,3980
2017-08-21T05:18:04.614Z,4024
2017-08-21T05:19:16.579Z,5264
2017-08-21T05:20:28.529Z,5024
2017-08-21T05:21:40.778Z,5548
2017-08-21T05:22:53.041Z,5504
2017-08-21T05:24:05.646Z,5300
2017-08-21T05:25:17.624Z,3620
2017-08-21T05:26:30.244Z,4144
2017-08-21T05:27:42.535Z,5580
2017-08-21T05:28:55.156Z,5000
2017-08-21T05:30:07.380Z,7504
2017-08-21T05:31:20.017Z,7060
2017-08-21T05:32:31.993Z,8228
2017-08-21T05:33:44.338Z,3832
2017-08-21T05:34:56.587Z,3440
2017-08-21T05:36:08.898Z,4492
2017-08-21T05:37:21.487Z,3936
2017-08-21T05:38:33.819Z,4732
2017-08-21T05:39:45.470Z,4908
2017-08-21T05:40:57.706Z,4192
2017-08-21T05:42:09.963Z,4408
2017-08-21T05:43:22.602Z,5536
2017-08-21T05:44:35.131Z,7108
2017-08-21T05:45:47.450Z,4264
2017-08-21T05:47:00.286Z,7336
2017-08-21T05:48:12.873Z,5192
2017-08-21T05:49:25.462Z,5048
2017-08-21T05:50:37.749Z,4392
2017-08-21T05:51:50.009Z,5368
2017-08-21T05:53:02.266Z,5808
2017-08-21T05:54:14.894Z,5392
2017-08-21T05:55:26.580Z,5040
2017-08-21T05:56:39.149Z,5340
2017-08-21T05:57:51.921Z,4676
2017-08-21T05:59:04.149Z,6192
2017-08-21T06:00:16.767Z,7104
2017-08-21T06:01:28.733Z,6380
2017-08-21T06:02:41.303Z,5592
2017-08-21T06:03:53.554Z,5608
2017-08-21T06:05:05.887Z,5636
2017-08-21T06:06:18.481Z,5208
2017-08-21T06:07:30.436Z,4572
2017-08-21T06:08:43.015Z,4256
2017-08-21T06:09:55.593Z,3312
2017-08-21T06:11:07.539Z,3400
2017-08-21T06:12:20.129Z,3832
2017-08-21T06:13:32.747Z,4264
2017-08-21T06:14:45.327Z,4052
2017-08-21T06:15:57.616Z,4468
2017-08-21T06:17:09.626Z,6388
2017-08-21T06:18:22.262Z,8324
2017-08-21T06:19:34.538Z,9012
2017-08-21T06:20:46.514Z,6976
2017-08-21T06:21:59.108Z,7992
2017-08-21T06:23:11.405Z,8376
2017-08-21T06:24:23.928Z,10064
2017-08-21T06:25:36.512Z,9764
2017-08-21T06:26:49.095Z,8700
2017-08-21T06:28:01.693Z,8168
2017-08-21T06:29:14.006Z,7424
2017-08-21T06:30:26.310Z,8248
2017-08-21T06:31:38.974Z,7396
2017-08-21T06:32:50.917Z,10232
2017-08-21T06:34:02.870Z,6876
2017-08-21T06:35:14.898Z,8388
2017-08-21T06:36:26.886Z,8828
2017-08-21T06:37:39.118Z,7076
2017-08-21T06:38:51.073Z,10408
2017-08-21T06:40:03.649Z,7192
2017-08-21T06:41:16.262Z,7700
2017-08-21T06:42:28.241Z,9628
2017-08-21T06:43:40.554Z,10616
2017-08-21T06:44:53.178Z,13032
2017-08-21T06:46:05.470Z,11216
2017-08-21T06:47:17.452Z,9464
2017-08-21T06:48:29.737Z,9152
2017-08-21T06:49:42.344Z,10976
2017-08-21T06:50:54.983Z,10860
2017-08-21T06:52:07.312Z,10660
2017-08-21T06:53:19.906Z,10980
2017-08-21T06:54:32.557Z,9496
2017-08-21T06:55:44.828Z,8976
2017-08-21T06:56:57.413Z,12076
2017-08-21T06:58:10.053Z,7364
2017-08-21T06:59:22.576Z,9108
2017-08-21T07:00:35.245Z,10088
2017-08-21T07:01:47.218Z,12308
2017-08-21T07:03:00.065Z,14908
2017-08-21T07:04:12.066Z,11904
2017-08-21T07:05:24.655Z,10232
2017-08-21T07:06:37.222Z,11332
2017-08-21T07:07:49.172Z,11956
2017-08-21T07:09:01.445Z,8588
2017-08-21T07:10:14.066Z,7728
2017-08-21T07:11:26.328Z,7692
2017-08-21T07:12:38.825Z,12592
2017-08-21T07:13:50.435Z,14440
2017-08-21T07:15:02.740Z,7988
2017-08-21T07:16:15.039Z,12032
2017-08-21T07:17:27.393Z,12728
2017-08-21T07:18:40.030Z,6720
2017-08-21T07:19:51.961Z,12500
2017-08-21T07:21:04.261Z,9332
2017-08-21T07:22:16.529Z,12776
2017-08-21T07:23:28.517Z,16096
2017-08-21T07:24:40.837Z,13496
2017-08-21T07:25:53.401Z,12508
2017-08-21T07:27:05.983Z,15988
2017-08-21T07:28:18.625Z,9308
2017-08-21T07:29:31.314Z,11900
2017-08-21T07:30:43.645Z,14360
2017-08-21T07:31:55.966Z,14344
2017-08-21T07:33:08.607Z,11064
2017-08-21T07:34:21.222Z,11072
2017-08-21T07:35:33.795Z,10644
2017-08-21T07:36:46.062Z,8096
2017-08-21T07:37:58.664Z,9444
2017-08-21T07:39:10.953Z,14164
2017-08-21T07:40:23.557Z,13844
2017-08-21T07:41:36.244Z,13332
2017-08-21T07:42:48.539Z,15096
2017-08-21T07:44:00.804Z,9360
2017-08-21T07:45:13.356Z,10184
2017-08-21T07:46:25.280Z,10164
2017-08-21T07:47:37.278Z,12356
2017-08-21T07:48:49.568Z,11192
2017-08-21T07:50:01.788Z,11776
2017-08-21T07:51:14.350Z,10104
2017-08-21T07:52:27.006Z,14432
2017-08-21T07:53:39.554Z,38688
2017-08-21T07:54:52.174Z,24064
2017-08-21T07:56:04.467Z,13700
2017-08-21T07:57:16.730Z,24640
2017-08-21T07:58:29.076Z,19840
2017-08-21T07:59:41.669Z,27648
2017-08-21T08:00:53.992Z,63296
2017-08-21T08:02:06.302Z,27104
2017-08-21T08:03:18.879Z,17796
2017-08-21T08:04:31.455Z,51616
2017-08-21T08:05:43.510Z,48608
2017-08-21T08:06:55.759Z,17364
2017-08-21T08:08:08.029Z,21856
2017-08-21T08:09:20.619Z,22432
2017-08-21T08:10:33.192Z,20160
2017-08-21T08:11:45.164Z,20864
2017-08-21T08:12:57.388Z,22560
2017-08-21T08:14:09.983Z,23680
2017-08-21T08:15:22.528Z,22880
2017-08-21T08:16:35.185Z,22272
2017-08-21T08:17:47.506Z,26368
2017-08-21T08:19:00.064Z,15244
2017-08-21T08:20:12.618Z,13256
2017-08-21T08:21:24.629Z,19360
2017-08-21T08:22:36.627Z,15920
2017-08-21T08:23:49.183Z,15300
2017-08-21T08:25:01.817Z,21728
2017-08-21T08:26:14.151Z,24224
2017-08-21T08:27:26.770Z,27520
2017-08-21T08:28:39.093Z,18208
2017-08-21T08:29:51.099Z,25856
2017-08-21T08:31:03.123Z,17568
2017-08-21T08:32:15.360Z,20864
2017-08-21T08:33:26.981Z,24032
2017-08-21T08:34:39.236Z,24832
2017-08-21T08:35:51.784Z,22720
2017-08-21T08:37:03.794Z,22400
2017-08-21T08:38:16.426Z,16144
2017-08-21T08:39:28.685Z,16108
2017-08-21T08:40:41.255Z,17620
2017-08-21T08:41:53.893Z,14600
2017-08-21T08:43:06.430Z,16264
2017-08-21T08:44:18.142Z,15376
2017-08-21T08:45:30.764Z,22112
2017-08-21T08:46:43.057Z,27104
2017-08-21T08:47:54.733Z,22368
2017-08-21T08:49:07.302Z,23424
2017-08-21T08:50:19.276Z,17048
2017-08-21T08:51:31.541Z,20256
2017-08-21T08:52:43.521Z,27232
2017-08-21T08:53:55.873Z,29312
2017-08-21T08:55:07.880Z,21824
2017-08-21T08:56:20.506Z,13440
2017-08-21T08:57:33.076Z,18944
2017-08-21T08:58:45.388Z,18880
2017-08-21T08:59:57.422Z,25504
2017-08-21T09:01:09.990Z,26176
2017-08-21T09:02:22.604Z,22112
2017-08-21T09:03:34.898Z,21504
2017-08-21T09:04:47.162Z,25568
2017-08-21T09:05:59.118Z,24288
2017-08-21T09:07:11.472Z,17472
2017-08-21T09:08:23.733Z,18720
2017-08-21T09:09:35.708Z,20544
2017-08-21T09:10:47.683Z,11736
2017-08-21T09:12:00.275Z,10196
2017-08-21T09:13:12.939Z,9428
2017-08-21T09:14:25.260Z,10928
2017-08-21T09:15:37.546Z,11976
2017-08-21T09:16:50.168Z,11292
2017-08-21T09:18:02.710Z,10308
2017-08-21T09:19:15.314Z,9888
2017-08-21T09:20:27.563Z,10272
2017-08-21T09:21:39.807Z,12376
2017-08-21T09:22:52.478Z,13460
2017-08-21T09:24:04.998Z,12808
2017-08-21T09:25:16.997Z,15204
2017-08-21T09:26:29.266Z,18912
2017-08-21T09:27:41.836Z,21504
2017-08-21T09:28:54.417Z,23680
2017-08-21T09:30:07.052Z,25760
2017-08-21T09:31:19.648Z,30400
2017-08-21T09:32:31.922Z,29408
2017-08-21T09:33:44.127Z,23936
2017-08-21T09:34:56.398Z,20128
2017-08-21T09:36:09.071Z,17856
2017-08-21T09:37:21.378Z,16200
2017-08-21T09:38:33.996Z,13704
2017-08-21T09:39:46.268Z,12324
2017-08-21T09:40:58.524Z,11560
2017-08-21T09:42:10.812Z,14208
2017-08-21T09:43:23.074Z,23424
2017-08-21T09:44:35.400Z,25088
2017-08-21T09:45:48.008Z,23136
2017-08-21T09:47:00.574Z,27328
2017-08-21T09:48:12.887Z,25728
2017-08-21T09:49:25.124Z,19776
2017-08-21T09:50:37.451Z,16288
2017-08-21T09:51:49.775Z,13108
2017-08-21T09:53:01.724Z,13488
2017-08-21T09:54:14.007Z,16576
2017-08-21T09:55:26.571Z,21344
2017-08-21T09:56:39.206Z,25472
2017-08-21T09:57:51.829Z,19552
2017-08-21T09:59:04.082Z,15916
2017-08-21T10:00:16.397Z,11420
2017-08-21T10:01:29.034Z,15368
2017-08-21T10:02:41.645Z,16144
2017-08-21T10:03:53.980Z,14060
2017-08-21T10:05:06.576Z,12652
2017-08-21T10:06:18.503Z,15180
2017-08-21T10:07:30.847Z,17164
2017-08-21T10:08:43.398Z,17104
2017-08-21T10:09:55.709Z,14632
2017-08-21T10:11:08.278Z,10124
2017-08-21T10:12:20.862Z,8936
2017-08-21T10:13:32.821Z,12888
2017-08-21T10:14:44.841Z,12104
2017-08-21T10:15:57.139Z,10972
2017-08-21T10:17:09.114Z,12316
2017-08-21T10:18:21.984Z,12788
2017-08-21T10:19:34.025Z,52128
2017-08-21T10:20:46.575Z,37504
2017-08-21T10:21:58.265Z,20704
2017-08-21T10:23:10.809Z,22048
2017-08-21T10:24:23.122Z,31008
2017-08-21T10:25:35.093Z,110560
2017-08-21T10:26:47.696Z,32576
2017-08-21T10:28:00.254Z,14848
2017-08-21T10:29:12.813Z,25824
2017-08-21T10:30:25.058Z,55872
2017-08-21T10:31:37.022Z,62816
2017-08-21T10:32:49.275Z,44032
2017-08-21T10:34:01.307Z,87424
2017-08-21T10:35:13.930Z,83168
2017-08-21T10:36:26.215Z,74720
2017-08-21T10:37:38.208Z,74144
2017-08-21T10:38:50.762Z,37504
2017-08-21T10:40:03.398Z,14972
2017-08-21T10:41:15.995Z,18272
2017-08-21T10:42:28.346Z,23936
2017-08-21T10:43:40.316Z,28704
2017-08-21T10:44:52.931Z,26496
2017-08-21T10:46:05.201Z,24416
2017-08-21T10:47:17.147Z,24224
2017-08-21T10:48:29.368Z,25824
2017-08-21T10:49:41.974Z,27040
2017-08-21T10:50:54.609Z,24448
2017-08-21T10:52:06.583Z,26048
2017-08-21T10:53:18.594Z,23520
2017-08-21T10:54:31.162Z,27648
2017-08-21T10:55:43.464Z,87584
2017-08-21T10:56:55.816Z,37248
2017-08-21T10:58:08.401Z,25632
2017-08-21T10:59:21.028Z,25120
2017-08-21T11:00:33.051Z,85312
2017-08-21T11:01:45.888Z,19232
2017-08-21T11:02:58.192Z,14292
2017-08-21T11:04:10.440Z,9656
2017-08-21T11:05:22.463Z,7992
2017-08-21T11:06:35.082Z,7252
2017-08-21T11:07:47.673Z,7280
2017-08-21T11:08:59.984Z,8252
2017-08-21T11:10:11.990Z,9548
2017-08-21T11:11:24.592Z,11700
2017-08-21T11:12:37.164Z,12988
2017-08-21T11:13:49.763Z,16648
2017-08-21T11:15:02.439Z,16676
2017-08-21T11:16:14.498Z,16516
2017-08-21T11:17:27.023Z,18976
2017-08-21T11:18:39.565Z,24672
2017-08-21T11:19:51.566Z,26464
2017-08-21T11:21:03.912Z,21792
2017-08-21T11:22:16.528Z,19968
2017-08-21T11:23:29.117Z,22656
2017-08-21T11:24:41.763Z,74368
2017-08-21T11:25:54.414Z,70720
2017-08-21T11:27:06.456Z,67424
2017-08-21T11:28:19.028Z,68672
2017-08-21T11:29:31.321Z,68320
2017-08-21T11:30:43.320Z,72576
2017-08-21T11:31:55.654Z,77440
2017-08-21T11:33:08.225Z,76992
2017-08-21T11:34:20.835Z,80832
2017-08-21T11:35:32.797Z,77216
2017-08-21T11:36:44.500Z,44576
2017-08-21T11:37:56.843Z,72704
2017-08-21T11:39:09.134Z,27936
2017-08-21T11:40:21.756Z,75392
2017-08-21T11:41:34.035Z,29568
2017-08-21T11:42:46.397Z,77184
2017-08-21T11:43:58.705Z,68512
2017-08-21T11:45:11.288Z,77376
2017-08-21T11:46:23.302Z,52416
2017-08-21T11:47:35.542Z,66272
2017-08-21T11:48:47.858Z,23808
2017-08-21T11:50:00.472Z,20160
2017-08-21T11:51:12.776Z,15864
2017-08-21T11:52:25.143Z,9128
2017-08-21T11:53:37.814Z,6816
2017-08-21T11:54:50.152Z,5592
2017-08-21T11:56:02.817Z,5364
2017-08-21T11:57:15.444Z,7740
2017-08-21T11:58:27.771Z,13408
2017-08-21T11:59:40.051Z,19744
2017-08-21T12:00:52.038Z,18976
2017-08-21T12:02:04.358Z,30720
2017-08-21T12:03:16.701Z,15736
2017-08-21T12:04:29.037Z,71936
2017-08-21T12:05:41.300Z,72704
2017-08-21T12:06:53.591Z,75872
2017-08-21T12:08:06.136Z,77920
2017-08-21T12:09:18.726Z,33472
2017-08-21T12:10:31.021Z,39616
2017-08-21T12:11:43.319Z,34528
2017-08-21T12:12:55.670Z,34720
2017-08-21T12:14:08.307Z,55264
2017-08-21T12:15:20.621Z,28416
2017-08-21T12:16:32.883Z,18688
2017-08-21T12:17:45.221Z,9048
2017-08-21T12:18:57.793Z,5604
2017-08-21T12:20:10.365Z,4372
2017-08-21T12:21:22.633Z,5356
2017-08-21T12:22:34.560Z,10976
2017-08-21T12:23:47.116Z,42848
2017-08-21T12:24:59.725Z,59936
2017-08-21T12:26:11.980Z,83840
2017-08-21T12:27:24.579Z,28704
2017-08-21T12:28:37.199Z,31392
2017-08-21T12:29:49.434Z,58432
2017-08-21T12:31:02.065Z,62944
2017-08-21T12:32:14.053Z,25024
2017-08-21T12:33:26.297Z,22848
2017-08-21T12:34:38.861Z,20896
2017-08-21T12:35:50.538Z,18272
2017-08-21T12:37:02.492Z,14984
2017-08-21T12:38:14.783Z,12824
2017-08-21T12:39:27.042Z,12876
2017-08-21T12:40:39.943Z,16136
2017-08-21T12:41:52.797Z,21792
2017-08-21T12:43:05.129Z,27296
2017-08-21T12:44:17.099Z,34304
2017-08-21T12:45:29.701Z,24064
2017-08-21T12:46:42.290Z,22848
2017-08-21T12:47:54.618Z,30400
2017-08-21T12:49:06.926Z,25952
2017-08-21T12:50:18.576Z,25056
2017-08-21T12:51:30.583Z,27808
2017-08-21T12:52:42.870Z,24896
2017-08-21T12:53:55.147Z,26368
2017-08-21T12:55:07.397Z,47040
2017-08-21T12:56:19.363Z,66016
2017-08-21T12:57:31.985Z,52736
2017-08-21T12:58:43.603Z,21600
2017-08-21T12:59:55.917Z,38560
2017-08-21T13:01:07.914Z,31872
2017-08-21T13:02:19.885Z,27008
2017-08-21T13:03:32.144Z,43936
2017-08-21T13:04:43.876Z,36640
2017-08-21T13:05:56.446Z,25440
2017-08-21T13:07:08.768Z,17232
2017-08-21T13:08:21.297Z,13424
2017-08-21T13:09:33.589Z,15180
2017-08-21T13:10:45.878Z,14216
2017-08-21T13:11:57.574Z,13820
2017-08-21T13:13:09.870Z,15472
2017-08-21T13:14:22.140Z,17108
2017-08-21T13:15:34.766Z,22016
2017-08-21T13:16:46.435Z,21856
2017-08-21T13:17:59.003Z,18784
2017-08-21T13:19:11.566Z,14596
2017-08-21T13:20:24.151Z,14292
2017-08-21T13:21:36.743Z,18464
2017-08-21T13:22:49.065Z,17376
2017-08-21T13:24:01.426Z,22784
2017-08-21T13:25:14.008Z,23360
2017-08-21T13:26:26.278Z,20992
2017-08-21T13:27:38.854Z,21376
2017-08-21T13:28:51.437Z,16520
2017-08-21T13:30:03.449Z,13032
2017-08-21T13:31:15.733Z,11996
2017-08-21T13:32:27.431Z,13364
2017-08-21T13:33:40.037Z,12836
2017-08-21T13:34:52.015Z,10144
2017-08-21T13:36:03.088Z,6508
2017-08-21T13:37:15.107Z,3788
2017-08-21T13:38:27.660Z,2608
2017-08-21T13:39:39.900Z,2612
2017-08-21T13:40:52.170Z,4228
2017-08-21T13:42:04.442Z,7268
2017-08-21T13:43:16.736Z,10284
2017-08-21T13:44:29.072Z,13892
2017-08-21T13:45:41.518Z,17888
2017-08-21T13:46:53.834Z,20960
2017-08-21T13:48:06.172Z,22496
2017-08-21T13:49:18.807Z,23968
2017-08-21T13:50:31.435Z,24192
2017-08-21T13:51:43.716Z,20832
2017-08-21T13:52:56.344Z,22400
2017-08-21T13:54:08.690Z,24704
2017-08-21T13:55:20.997Z,24928
2017-08-21T13:56:33.004Z,26304
2017-08-21T13:57:44.422Z,26080
2017-08-21T13:58:56.386Z,22624
2017-08-21T14:00:08.651Z,16916
2017-08-21T14:01:21.272Z,12844
2017-08-21T14:02:33.891Z,12108
2017-08-21T14:03:45.579Z,11316
2017-08-21T14:04:58.225Z,10008
2017-08-21T14:06:10.809Z,8556
2017-08-21T14:07:22.741Z,7324
2017-08-21T14:08:35.057Z,6240
2017-08-21T14:09:47.689Z,5464
2017-08-21T14:10:59.965Z,5188
2017-08-21T14:12:12.229Z,5640
2017-08-21T14:13:24.838Z,6548
2017-08-21T14:14:36.601Z,7888
2017-08-21T14:15:49.179Z,10536
2017-08-21T14:17:01.465Z,11756
2017-08-21T14:18:13.766Z,10120
2017-08-21T14:19:25.742Z,7656
2017-08-21T14:20:38.354Z,7336
2017-08-21T14:21:50.022Z,7224
2017-08-21T14:23:02.292Z,5720
2017-08-21T14:24:14.880Z,4108
2017-08-21T14:25:26.851Z,4264
2017-08-21T14:26:39.457Z,5812
2017-08-21T14:27:51.775Z,6664
2017-08-21T14:29:04.032Z,6364
2017-08-21T14:30:16.619Z,5676
2017-08-21T14:31:28.015Z,5868
2017-08-21T14:32:39.956Z,4740
2017-08-21T14:33:52.278Z,3656
2017-08-21T14:35:04.229Z,3340
2017-08-21T14:36:16.516Z,3768
2017-08-21T14:37:28.808Z,4460
2017-08-21T14:38:41.368Z,5564
2017-08-21T14:39:53.708Z,7392
2017-08-21T14:41:05.328Z,9684
2017-08-21T14:42:17.640Z,11896
2017-08-21T14:43:29.623Z,12996
2017-08-21T14:44:41.617Z,14304
2017-08-21T14:45:53.584Z,16076
2017-08-21T14:47:05.891Z,18432
2017-08-21T14:48:17.600Z,18176
2017-08-21T14:49:29.886Z,16296
2017-08-21T14:50:41.572Z,15888
2017-08-21T14:51:53.930Z,16436
2017-08-21T14:53:06.244Z,15916
2017-08-21T14:54:18.565Z,14624
2017-08-21T14:55:31.100Z,13780
2017-08-21T14:56:43.352Z,13112
2017-08-21T14:57:55.658Z,13324
2017-08-21T14:59:07.920Z,14176
2017-08-21T15:00:19.921Z,13716
2017-08-21T15:01:32.529Z,12860
2017-08-21T15:02:45.149Z,12028
2017-08-21T15:03:57.101Z,11560
2017-08-21T15:05:09.422Z,11708
2017-08-21T15:06:21.747Z,12752
2017-08-21T15:07:33.737Z,13192
2017-08-21T15:08:45.429Z,12708
2017-08-21T15:09:57.703Z,12692
2017-08-21T15:11:10.005Z,12204
2017-08-21T15:12:22.274Z,11528
2017-08-21T15:13:33.965Z,11756
2017-08-21T15:14:45.981Z,12156
2017-08-21T15:15:58.562Z,11464
2017-08-21T15:17:11.122Z,9436
2017-08-21T15:18:23.422Z,7420
2017-08-21T15:19:35.374Z,6736
2017-08-21T15:20:47.994Z,6300
2017-08-21T15:21:59.954Z,6588
2017-08-21T15:23:11.937Z,6784
2017-08-21T15:24:24.249Z,6736
2017-08-21T15:25:36.247Z,7176
2017-08-21T15:26:48.285Z,7432
2017-08-21T15:28:00.544Z,7416
2017-08-21T15:29:13.105Z,7196
2017-08-21T15:30:25.325Z,6652
2017-08-21T15:31:37.636Z,6484
2017-08-21T15:32:49.327Z,6872
2017-08-21T15:34:01.911Z,7328
2017-08-21T15:35:14.106Z,8208
2017-08-21T15:36:26.699Z,9012
2017-08-21T15:37:38.348Z,10280
2017-08-21T15:38:50.636Z,11164
2017-08-21T15:40:02.997Z,11916
2017-08-21T15:41:15.277Z,12400
2017-08-21T15:42:27.880Z,12340
2017-08-21T15:43:40.176Z,12004
2017-08-21T15:44:52.497Z,11964
2017-08-21T15:46:04.417Z,11816
2017-08-21T15:47:16.940Z,11640
2017-08-21T15:48:29.569Z,11352
2017-08-21T15:49:41.836Z,10896
2017-08-21T15:50:54.119Z,10604
2017-08-21T15:52:06.125Z,10380
2017-08-21T15:53:18.159Z,9864
2017-08-21T15:54:30.773Z,9844
2017-08-21T15:55:43.439Z,10052
2017-08-21T15:56:55.470Z,10748
2017-08-21T15:58:07.729Z,11048
2017-08-21T15:59:20.331Z,10884
2017-08-21T16:00:32.932Z,10460
2017-08-21T16:01:44.860Z,10224
2017-08-21T16:02:56.870Z,9948
2017-08-21T16:04:08.876Z,9488
2017-08-21T16:05:20.946Z,8992
2017-08-21T16:06:33.621Z,8516
2017-08-21T16:07:45.931Z,8212
2017-08-21T16:08:58.513Z,8200
2017-08-21T16:10:10.506Z,8284
2017-08-21T16:11:22.565Z,8200